This is the latest recevied weather packets stored in our database for station/object DL3GCR-10. If no packets are shown the sender has not sent any weather packets the latest 10 day(s).
| Time | Temp. | Humidity | Pressure | Rain* | Wind** | Luminosity | Snow |
|---|---|---|---|---|---|---|---|
| 1777273616 | 10.56° C | 59% | 1023.7 hPa | - | - | - | - |
| 1777272716 | 10° C | 60% | 1023.8 hPa | - | - | - | - |
| 1777271816 | 9.44° C | 61% | 1023.8 hPa | - | - | - | - |
| 1777270915 | 8.89° C | 61% | 1023.8 hPa | - | - | - | - |
| 1777270015 | 8.89° C | 62% | 1023.9 hPa | - | - | - | - |
| 1777269115 | 7.78° C | 63% | 1023.8 hPa | - | - | - | - |
| 1777268215 | 7.22° C | 65% | 1023.9 hPa | - | - | - | - |
| 1777267315 | 6.67° C | 68% | 1023.8 hPa | - | - | - | - |
| 1777266414 | 6.67° C | 68% | 1023.5 hPa | - | - | - | - |
| 1777265514 | 6.67° C | 66% | 1023.4 hPa | - | - | - | - |
| 1777264613 | 6.67° C | 66% | 1023.2 hPa | - | - | - | - |
| 1777263718 | 6.67° C | 66% | 1023.2 hPa | - | - | - | - |
| 1777262818 | 6.67° C | 66% | 1023 hPa | - | - | - | - |
| 1777261918 | 7.22° C | 63% | 1023.1 hPa | - | - | - | - |
| 1777261018 | 6.67° C | 64% | 1023.2 hPa | - | - | - | - |
| 1777260118 | 7.22° C | 64% | 1023.3 hPa | - | - | - | - |
| 1777259217 | 7.22° C | 63% | 1023.2 hPa | - | - | - | - |
| 1777258317 | 7.22° C | 62% | 1023.1 hPa | - | - | - | - |
| 1777257417 | 7.22° C | 63% | 1023.2 hPa | - | - | - | - |
| 1777256517 | 7.78° C | 62% | 1023 hPa | - | - | - | - |
| 1777255617 | 7.78° C | 60% | 1023 hPa | - | - | - | - |
| 1777254716 | 8.33° C | 59% | 1023.1 hPa | - | - | - | - |
| 1777253816 | 8.33° C | 59% | 1023.1 hPa | - | - | - | - |
| 1777252016 | 8.89° C | 58% | 1023.3 hPa | - | - | - | - |
| 1777251115 | 8.89° C | 57% | 1023.3 hPa | - | - | - | - |
* Rain since midnight (hover to see other rain measurements)
** Current wind speed in m/s (hover to see current wind gust speed)